sensor_id;sensor_type;location;lat;lon;timestamp;P1;durP1;ratioP1;P2;durP2;ratioP2
41927;SDS011;27616;51.420;6.788;2023-11-21T00:00:44;8.57;;;2.77;;
41927;SDS011;27616;51.420;6.788;2023-11-21T00:03:11;7.47;;;2.50;;
41927;SDS011;27616;51.420;6.788;2023-11-21T00:05:39;7.80;;;2.72;;
41927;SDS011;27616;51.420;6.788;2023-11-21T00:08:06;7.30;;;2.57;;
41927;SDS011;27616;51.420;6.788;2023-11-21T00:10:32;6.43;;;2.97;;
41927;SDS011;27616;51.420;6.788;2023-11-21T00:12:58;12.03;;;3.47;;
41927;SDS011;27616;51.420;6.788;2023-11-21T00:15:24;7.97;;;2.57;;
41927;SDS011;27616;51.420;6.788;2023-11-21T00:17:50;11.87;;;3.50;;
41927;SDS011;27616;51.420;6.788;2023-11-21T00:20:15;8.27;;;3.50;;
41927;SDS011;27616;51.420;6.788;2023-11-21T00:22:41;7.93;;;3.30;;
41927;SDS011;27616;51.420;6.788;2023-11-21T00:25:07;11.47;;;2.73;;
41927;SDS011;27616;51.420;6.788;2023-11-21T00:27:34;6.80;;;3.20;;
41927;SDS011;27616;51.420;6.788;2023-11-21T00:30:03;10.35;;;3.40;;
41927;SDS011;27616;51.420;6.788;2023-11-21T00:32:30;8.00;;;3.00;;
41927;SDS011;27616;51.420;6.788;2023-11-21T00:34:57;7.43;;;2.70;;
41927;SDS011;27616;51.420;6.788;2023-11-21T00:37:22;9.53;;;3.00;;
41927;SDS011;27616;51.420;6.788;2023-11-21T00:39:49;7.50;;;2.70;;
41927;SDS011;27616;51.420;6.788;2023-11-21T00:42:14;7.87;;;3.00;;
41927;SDS011;27616;51.420;6.788;2023-11-21T00:44:40;6.80;;;3.50;;
41927;SDS011;27616;51.420;6.788;2023-11-21T00:47:05;6.93;;;2.80;;
41927;SDS011;27616;51.420;6.788;2023-11-21T00:49:32;9.53;;;3.70;;
41927;SDS011;27616;51.420;6.788;2023-11-21T00:51:57;6.77;;;2.57;;
41927;SDS011;27616;51.420;6.788;2023-11-21T00:54:25;8.47;;;3.50;;
41927;SDS011;27616;51.420;6.788;2023-11-21T00:56:51;9.47;;;3.50;;
41927;SDS011;27616;51.420;6.788;2023-11-21T00:59:17;10.10;;;3.47;;
41927;SDS011;27616;51.420;6.788;2023-11-21T01:01:43;8.00;;;3.30;;
41927;SDS011;27616;51.420;6.788;2023-11-21T01:04:09;8.93;;;3.40;;
41927;SDS011;27616;51.420;6.788;2023-11-21T01:06:35;7.77;;;3.40;;
41927;SDS011;27616;51.420;6.788;2023-11-21T01:09:01;8.93;;;3.57;;
41927;SDS011;27616;51.420;6.788;2023-11-21T01:11:29;9.53;;;3.63;;
41927;SDS011;27616;51.420;6.788;2023-11-21T01:13:54;6.10;;;3.37;;
41927;SDS011;27616;51.420;6.788;2023-11-21T01:16:20;8.37;;;3.47;;
41927;SDS011;27616;51.420;6.788;2023-11-21T01:18:46;11.17;;;3.63;;
41927;SDS011;27616;51.420;6.788;2023-11-21T01:21:11;12.10;;;4.10;;
41927;SDS011;27616;51.420;6.788;2023-11-21T01:23:37;9.53;;;3.70;;
41927;SDS011;27616;51.420;6.788;2023-11-21T01:26:03;8.40;;;3.47;;
41927;SDS011;27616;51.420;6.788;2023-11-21T01:28:28;13.27;;;4.60;;
41927;SDS011;27616;51.420;6.788;2023-11-21T01:30:54;10.43;;;3.90;;
41927;SDS011;27616;51.420;6.788;2023-11-21T01:33:21;6.83;;;3.50;;
41927;SDS011;27616;51.420;6.788;2023-11-21T01:35:50;17.70;;;4.05;;
41927;SDS011;27616;51.420;6.788;2023-11-21T01:38:18;10.67;;;3.70;;
41927;SDS011;27616;51.420;6.788;2023-11-21T01:40:43;9.90;;;3.97;;
41927;SDS011;27616;51.420;6.788;2023-11-21T01:43:11;11.10;;;4.60;;
41927;SDS011;27616;51.420;6.788;2023-11-21T01:45:36;13.43;;;4.43;;
41927;SDS011;27616;51.420;6.788;2023-11-21T01:48:02;9.70;;;3.70;;
41927;SDS011;27616;51.420;6.788;2023-11-21T01:50:29;15.70;;;4.00;;
41927;SDS011;27616;51.420;6.788;2023-11-21T01:52:55;14.53;;;5.10;;
41927;SDS011;27616;51.420;6.788;2023-11-21T01:55:21;8.87;;;3.90;;
41927;SDS011;27616;51.420;6.788;2023-11-21T01:57:47;7.50;;;3.80;;
41927;SDS011;27616;51.420;6.788;2023-11-21T02:00:13;13.00;;;4.27;;
41927;SDS011;27616;51.420;6.788;2023-11-21T02:02:44;10.40;;;4.07;;
41927;SDS011;27616;51.420;6.788;2023-11-21T02:05:11;13.27;;;4.83;;
41927;SDS011;27616;51.420;6.788;2023-11-21T02:07:39;8.30;;;3.57;;
41927;SDS011;27616;51.420;6.788;2023-11-21T02:10:06;10.87;;;4.57;;
41927;SDS011;27616;51.420;6.788;2023-11-21T02:12:33;10.77;;;4.43;;
41927;SDS011;27616;51.420;6.788;2023-11-21T02:15:00;14.17;;;4.40;;
41927;SDS011;27616;51.420;6.788;2023-11-21T02:17:28;11.13;;;4.30;;
41927;SDS011;27616;51.420;6.788;2023-11-21T02:19:53;11.77;;;4.07;;
41927;SDS011;27616;51.420;6.788;2023-11-21T02:22:19;12.43;;;4.60;;
41927;SDS011;27616;51.420;6.788;2023-11-21T02:24:45;11.77;;;4.50;;
41927;SDS011;27616;51.420;6.788;2023-11-21T02:27:12;13.03;;;4.33;;
41927;SDS011;27616;51.420;6.788;2023-11-21T02:29:38;12.93;;;4.40;;
41927;SDS011;27616;51.420;6.788;2023-11-21T02:32:04;12.60;;;4.80;;
41927;SDS011;27616;51.420;6.788;2023-11-21T02:34:30;18.13;;;5.07;;
41927;SDS011;27616;51.420;6.788;2023-11-21T02:36:56;11.53;;;4.60;;
41927;SDS011;27616;51.420;6.788;2023-11-21T02:39:22;6.30;;;3.57;;
41927;SDS011;27616;51.420;6.788;2023-11-21T02:41:48;7.30;;;3.63;;
41927;SDS011;27616;51.420;6.788;2023-11-21T02:44:14;8.30;;;3.70;;
41927;SDS011;27616;51.420;6.788;2023-11-21T02:46:40;7.63;;;3.67;;
41927;SDS011;27616;51.420;6.788;2023-11-21T02:49:06;11.10;;;4.03;;
41927;SDS011;27616;51.420;6.788;2023-11-21T02:51:32;8.67;;;4.07;;
41927;SDS011;27616;51.420;6.788;2023-11-21T02:53:58;9.93;;;3.47;;
41927;SDS011;27616;51.420;6.788;2023-11-21T02:56:26;13.35;;;3.80;;
41927;SDS011;27616;51.420;6.788;2023-11-21T02:58:54;8.97;;;3.70;;
41927;SDS011;27616;51.420;6.788;2023-11-21T03:01:20;9.73;;;3.77;;
41927;SDS011;27616;51.420;6.788;2023-11-21T03:03:46;12.97;;;4.00;;
41927;SDS011;27616;51.420;6.788;2023-11-21T03:06:12;9.63;;;3.40;;
41927;SDS011;27616;51.420;6.788;2023-11-21T03:08:38;13.73;;;4.23;;
41927;SDS011;27616;51.420;6.788;2023-11-21T03:11:04;14.07;;;4.83;;
41927;SDS011;27616;51.420;6.788;2023-11-21T03:13:29;13.60;;;4.70;;
41927;SDS011;27616;51.420;6.788;2023-11-21T03:15:57;14.33;;;4.10;;
41927;SDS011;27616;51.420;6.788;2023-11-21T03:18:23;11.13;;;4.43;;
41927;SDS011;27616;51.420;6.788;2023-11-21T03:20:48;11.80;;;4.87;;
41927;SDS011;27616;51.420;6.788;2023-11-21T03:23:14;14.83;;;4.57;;
41927;SDS011;27616;51.420;6.788;2023-11-21T03:25:40;9.00;;;4.17;;
41927;SDS011;27616;51.420;6.788;2023-11-21T03:28:05;10.47;;;3.80;;
41927;SDS011;27616;51.420;6.788;2023-11-21T03:30:35;11.95;;;4.07;;
41927;SDS011;27616;51.420;6.788;2023-11-21T03:33:00;13.60;;;5.03;;
41927;SDS011;27616;51.420;6.788;2023-11-21T03:35:26;14.77;;;5.07;;
41927;SDS011;27616;51.420;6.788;2023-11-21T03:37:52;12.23;;;4.30;;
41927;SDS011;27616;51.420;6.788;2023-11-21T03:40:17;16.50;;;4.87;;
41927;SDS011;27616;51.420;6.788;2023-11-21T03:42:43;12.87;;;4.07;;
41927;SDS011;27616;51.420;6.788;2023-11-21T03:45:09;14.20;;;4.80;;
41927;SDS011;27616;51.420;6.788;2023-11-21T03:47:34;12.27;;;5.17;;
41927;SDS011;27616;51.420;6.788;2023-11-21T03:50:00;14.87;;;4.80;;
41927;SDS011;27616;51.420;6.788;2023-11-21T03:52:26;12.23;;;4.43;;
41927;SDS011;27616;51.420;6.788;2023-11-21T03:54:53;15.70;;;5.70;;
41927;SDS011;27616;51.420;6.788;2023-11-21T03:57:20;16.47;;;5.43;;
41927;SDS011;27616;51.420;6.788;2023-11-21T03:59:46;13.37;;;4.37;;
41927;SDS011;27616;51.420;6.788;2023-11-21T04:02:11;10.67;;;4.70;;
41927;SDS011;27616;51.420;6.788;2023-11-21T04:04:37;14.03;;;4.47;;
41927;SDS011;27616;51.420;6.788;2023-11-21T04:07:03;15.50;;;5.13;;
41927;SDS011;27616;51.420;6.788;2023-11-21T04:09:29;14.57;;;4.83;;
41927;SDS011;27616;51.420;6.788;2023-11-21T04:11:55;14.60;;;5.00;;
41927;SDS011;27616;51.420;6.788;2023-11-21T04:14:22;15.93;;;4.90;;
41927;SDS011;27616;51.420;6.788;2023-11-21T04:16:47;17.20;;;4.77;;
41927;SDS011;27616;51.420;6.788;2023-11-21T04:19:13;15.23;;;4.50;;
41927;SDS011;27616;51.420;6.788;2023-11-21T04:21:40;12.30;;;4.90;;
41927;SDS011;27616;51.420;6.788;2023-11-21T04:24:06;11.27;;;5.20;;
41927;SDS011;27616;51.420;6.788;2023-11-21T04:26:32;14.37;;;5.10;;
41927;SDS011;27616;51.420;6.788;2023-11-21T04:28:58;12.53;;;4.67;;
41927;SDS011;27616;51.420;6.788;2023-11-21T04:31:24;15.23;;;5.07;;
41927;SDS011;27616;51.420;6.788;2023-11-21T04:33:49;13.73;;;4.97;;
41927;SDS011;27616;51.420;6.788;2023-11-21T04:36:15;11.73;;;5.43;;
41927;SDS011;27616;51.420;6.788;2023-11-21T04:38:40;15.50;;;5.50;;
41927;SDS011;27616;51.420;6.788;2023-11-21T04:41:06;17.47;;;5.20;;
41927;SDS011;27616;51.420;6.788;2023-11-21T04:43:32;16.07;;;5.43;;
41927;SDS011;27616;51.420;6.788;2023-11-21T04:45:58;12.73;;;5.07;;
41927;SDS011;27616;51.420;6.788;2023-11-21T04:48:24;13.60;;;5.43;;
41927;SDS011;27616;51.420;6.788;2023-11-21T04:50:50;15.00;;;4.93;;
41927;SDS011;27616;51.420;6.788;2023-11-21T04:53:16;13.40;;;5.17;;
41927;SDS011;27616;51.420;6.788;2023-11-21T04:55:42;12.50;;;5.73;;
41927;SDS011;27616;51.420;6.788;2023-11-21T04:58:09;11.37;;;5.00;;
41927;SDS011;27616;51.420;6.788;2023-11-21T05:00:35;11.40;;;4.93;;
41927;SDS011;27616;51.420;6.788;2023-11-21T05:03:02;12.60;;;4.80;;
41927;SDS011;27616;51.420;6.788;2023-11-21T05:05:28;14.07;;;5.57;;
41927;SDS011;27616;51.420;6.788;2023-11-21T05:07:55;13.03;;;5.70;;
41927;SDS011;27616;51.420;6.788;2023-11-21T05:10:20;16.27;;;5.43;;
41927;SDS011;27616;51.420;6.788;2023-11-21T05:12:47;14.97;;;6.77;;
41927;SDS011;27616;51.420;6.788;2023-11-21T05:15:15;12.87;;;5.80;;
41927;SDS011;27616;51.420;6.788;2023-11-21T05:17:42;13.23;;;5.30;;
41927;SDS011;27616;51.420;6.788;2023-11-21T05:20:14;15.50;;;5.47;;
41927;SDS011;27616;51.420;6.788;2023-11-21T05:22:48;12.90;;;5.73;;
41927;SDS011;27616;51.420;6.788;2023-11-21T05:25:14;14.17;;;5.00;;
41927;SDS011;27616;51.420;6.788;2023-11-21T05:27:43;13.73;;;5.75;;
41927;SDS011;27616;51.420;6.788;2023-11-21T05:30:10;15.27;;;5.70;;
41927;SDS011;27616;51.420;6.788;2023-11-21T05:32:37;15.73;;;5.90;;
41927;SDS011;27616;51.420;6.788;2023-11-21T05:35:03;16.13;;;5.33;;
41927;SDS011;27616;51.420;6.788;2023-11-21T05:37:34;11.47;;;5.77;;
41927;SDS011;27616;51.420;6.788;2023-11-21T05:40:01;15.67;;;5.47;;
41927;SDS011;27616;51.420;6.788;2023-11-21T05:42:31;12.97;;;6.57;;
41927;SDS011;27616;51.420;6.788;2023-11-21T05:44:57;14.33;;;5.83;;
41927;SDS011;27616;51.420;6.788;2023-11-21T05:47:24;13.27;;;5.27;;
41927;SDS011;27616;51.420;6.788;2023-11-21T05:49:51;12.50;;;5.53;;
41927;SDS011;27616;51.420;6.788;2023-11-21T05:52:17;14.13;;;6.30;;
41927;SDS011;27616;51.420;6.788;2023-11-21T05:54:43;14.20;;;5.73;;
41927;SDS011;27616;51.420;6.788;2023-11-21T05:57:09;22.53;;;6.47;;
41927;SDS011;27616;51.420;6.788;2023-11-21T05:59:34;16.57;;;6.27;;
41927;SDS011;27616;51.420;6.788;2023-11-21T06:02:00;14.00;;;5.60;;
41927;SDS011;27616;51.420;6.788;2023-11-21T06:04:25;13.40;;;5.60;;
41927;SDS011;27616;51.420;6.788;2023-11-21T06:06:51;15.17;;;6.20;;
41927;SDS011;27616;51.420;6.788;2023-11-21T06:09:18;14.63;;;6.03;;
41927;SDS011;27616;51.420;6.788;2023-11-21T06:11:43;14.57;;;6.20;;
41927;SDS011;27616;51.420;6.788;2023-11-21T06:14:09;12.67;;;5.93;;
41927;SDS011;27616;51.420;6.788;2023-11-21T06:16:36;18.93;;;6.40;;
41927;SDS011;27616;51.420;6.788;2023-11-21T06:19:01;14.77;;;6.73;;
41927;SDS011;27616;51.420;6.788;2023-11-21T06:21:27;14.37;;;5.70;;
41927;SDS011;27616;51.420;6.788;2023-11-21T06:23:53;24.00;;;7.50;;
41927;SDS011;27616;51.420;6.788;2023-11-21T06:26:18;27.37;;;8.43;;
41927;SDS011;27616;51.420;6.788;2023-11-21T06:28:45;30.50;;;9.33;;
41927;SDS011;27616;51.420;6.788;2023-11-21T06:31:11;25.13;;;8.60;;
41927;SDS011;27616;51.420;6.788;2023-11-21T06:33:37;36.47;;;10.07;;
41927;SDS011;27616;51.420;6.788;2023-11-21T06:36:03;29.47;;;9.80;;
41927;SDS011;27616;51.420;6.788;2023-11-21T06:38:29;26.80;;;9.80;;
41927;SDS011;27616;51.420;6.788;2023-11-21T06:40:58;29.83;;;9.30;;
41927;SDS011;27616;51.420;6.788;2023-11-21T06:43:26;31.77;;;9.40;;
41927;SDS011;27616;51.420;6.788;2023-11-21T06:45:52;40.43;;;10.73;;
41927;SDS011;27616;51.420;6.788;2023-11-21T06:48:18;33.30;;;10.50;;
41927;SDS011;27616;51.420;6.788;2023-11-21T06:50:43;31.83;;;10.23;;
41927;SDS011;27616;51.420;6.788;2023-11-21T06:53:09;31.40;;;9.30;;
41927;SDS011;27616;51.420;6.788;2023-11-21T06:55:40;28.80;;;9.43;;
41927;SDS011;27616;51.420;6.788;2023-11-21T06:58:06;37.23;;;9.77;;
41927;SDS011;27616;51.420;6.788;2023-11-21T07:00:31;37.00;;;11.13;;
41927;SDS011;27616;51.420;6.788;2023-11-21T07:02:57;33.80;;;11.33;;
41927;SDS011;27616;51.420;6.788;2023-11-21T07:05:23;31.37;;;10.43;;
41927;SDS011;27616;51.420;6.788;2023-11-21T07:07:48;32.70;;;11.17;;
41927;SDS011;27616;51.420;6.788;2023-11-21T07:10:14;31.97;;;10.77;;
41927;SDS011;27616;51.420;6.788;2023-11-21T07:12:40;38.87;;;11.13;;
41927;SDS011;27616;51.420;6.788;2023-11-21T07:15:06;34.07;;;10.93;;
41927;SDS011;27616;51.420;6.788;2023-11-21T07:17:37;31.83;;;10.67;;
41927;SDS011;27616;51.420;6.788;2023-11-21T07:20:03;34.42;;;11.27;;
41927;SDS011;27616;51.420;6.788;2023-11-21T07:22:29;41.50;;;12.13;;
41927;SDS011;27616;51.420;6.788;2023-11-21T07:24:55;39.67;;;12.13;;
41927;SDS011;27616;51.420;6.788;2023-11-21T07:27:23;37.85;;;11.45;;
41927;SDS011;27616;51.420;6.788;2023-11-21T07:29:49;34.60;;;10.93;;
41927;SDS011;27616;51.420;6.788;2023-11-21T07:32:15;39.67;;;12.53;;
41927;SDS011;27616;51.420;6.788;2023-11-21T07:34:41;46.77;;;13.27;;
41927;SDS011;27616;51.420;6.788;2023-11-21T07:37:07;37.33;;;11.27;;
41927;SDS011;27616;51.420;6.788;2023-11-21T07:39:34;44.37;;;12.43;;
41927;SDS011;27616;51.420;6.788;2023-11-21T07:42:01;35.90;;;12.67;;
41927;SDS011;27616;51.420;6.788;2023-11-21T07:44:27;43.70;;;12.53;;
41927;SDS011;27616;51.420;6.788;2023-11-21T07:46:53;33.07;;;11.47;;
41927;SDS011;27616;51.420;6.788;2023-11-21T07:49:22;43.42;;;11.80;;
41927;SDS011;27616;51.420;6.788;2023-11-21T07:51:48;37.63;;;11.23;;
41927;SDS011;27616;51.420;6.788;2023-11-21T07:54:14;46.83;;;13.83;;
41927;SDS011;27616;51.420;6.788;2023-11-21T07:56:41;41.27;;;11.43;;
41927;SDS011;27616;51.420;6.788;2023-11-21T07:59:07;39.97;;;11.13;;
41927;SDS011;27616;51.420;6.788;2023-11-21T08:01:33;38.80;;;11.17;;
41927;SDS011;27616;51.420;6.788;2023-11-21T08:03:58;44.30;;;11.53;;
41927;SDS011;27616;51.420;6.788;2023-11-21T08:06:28;38.70;;;11.77;;
41927;SDS011;27616;51.420;6.788;2023-11-21T08:08:55;40.33;;;12.43;;
41927;SDS011;27616;51.420;6.788;2023-11-21T08:11:21;38.87;;;11.97;;
41927;SDS011;27616;51.420;6.788;2023-11-21T08:13:47;41.13;;;12.50;;
41927;SDS011;27616;51.420;6.788;2023-11-21T08:16:13;39.73;;;11.80;;
41927;SDS011;27616;51.420;6.788;2023-11-21T08:18:38;43.20;;;11.50;;
41927;SDS011;27616;51.420;6.788;2023-11-21T08:21:05;37.17;;;12.80;;
41927;SDS011;27616;51.420;6.788;2023-11-21T08:23:31;36.83;;;12.13;;
41927;SDS011;27616;51.420;6.788;2023-11-21T08:25:56;39.23;;;11.17;;
41927;SDS011;27616;51.420;6.788;2023-11-21T08:28:22;38.13;;;12.17;;
41927;SDS011;27616;51.420;6.788;2023-11-21T08:30:50;38.60;;;12.80;;
41927;SDS011;27616;51.420;6.788;2023-11-21T08:33:17;37.77;;;11.53;;
41927;SDS011;27616;51.420;6.788;2023-11-21T08:35:42;33.03;;;10.97;;
41927;SDS011;27616;51.420;6.788;2023-11-21T08:38:08;37.00;;;12.40;;
41927;SDS011;27616;51.420;6.788;2023-11-21T08:40:35;40.60;;;13.40;;
41927;SDS011;27616;51.420;6.788;2023-11-21T08:43:00;45.57;;;13.40;;
41927;SDS011;27616;51.420;6.788;2023-11-21T08:45:28;41.67;;;12.67;;
41927;SDS011;27616;51.420;6.788;2023-11-21T08:47:53;38.47;;;12.20;;
41927;SDS011;27616;51.420;6.788;2023-11-21T08:50:19;41.80;;;12.43;;
41927;SDS011;27616;51.420;6.788;2023-11-21T08:52:44;41.60;;;13.00;;
41927;SDS011;27616;51.420;6.788;2023-11-21T08:55:13;34.63;;;11.20;;
41927;SDS011;27616;51.420;6.788;2023-11-21T08:57:40;37.53;;;11.80;;
41927;SDS011;27616;51.420;6.788;2023-11-21T09:00:09;40.17;;;12.60;;
41927;SDS011;27616;51.420;6.788;2023-11-21T09:02:39;40.40;;;11.83;;
41927;SDS011;27616;51.420;6.788;2023-11-21T09:05:07;34.30;;;12.43;;
41927;SDS011;27616;51.420;6.788;2023-11-21T09:07:34;39.33;;;12.87;;
41927;SDS011;27616;51.420;6.788;2023-11-21T09:10:00;36.73;;;12.50;;
41927;SDS011;27616;51.420;6.788;2023-11-21T09:12:27;34.53;;;11.73;;
41927;SDS011;27616;51.420;6.788;2023-11-21T09:14:52;34.70;;;11.43;;
41927;SDS011;27616;51.420;6.788;2023-11-21T09:17:18;39.43;;;10.87;;
41927;SDS011;27616;51.420;6.788;2023-11-21T09:19:44;33.23;;;11.57;;
41927;SDS011;27616;51.420;6.788;2023-11-21T09:22:14;34.83;;;12.27;;
41927;SDS011;27616;51.420;6.788;2023-11-21T09:24:40;36.77;;;11.53;;
41927;SDS011;27616;51.420;6.788;2023-11-21T09:27:06;34.70;;;11.67;;
41927;SDS011;27616;51.420;6.788;2023-11-21T09:29:31;34.27;;;11.43;;
41927;SDS011;27616;51.420;6.788;2023-11-21T09:31:57;34.00;;;11.17;;
41927;SDS011;27616;51.420;6.788;2023-11-21T09:34:26;40.17;;;13.00;;
41927;SDS011;27616;51.420;6.788;2023-11-21T09:36:52;33.23;;;11.40;;
41927;SDS011;27616;51.420;6.788;2023-11-21T09:39:18;33.80;;;11.97;;
41927;SDS011;27616;51.420;6.788;2023-11-21T09:41:46;37.37;;;12.90;;
41927;SDS011;27616;51.420;6.788;2023-11-21T09:44:17;35.10;;;11.23;;
41927;SDS011;27616;51.420;6.788;2023-11-21T09:46:45;33.28;;;11.25;;
41927;SDS011;27616;51.420;6.788;2023-11-21T09:49:17;33.13;;;11.77;;
41927;SDS011;27616;51.420;6.788;2023-11-21T09:51:47;45.17;;;14.33;;
41927;SDS011;27616;51.420;6.788;2023-11-21T09:54:15;46.30;;;14.60;;
41927;SDS011;27616;51.420;6.788;2023-11-21T09:56:42;50.20;;;15.43;;
41927;SDS011;27616;51.420;6.788;2023-11-21T09:59:10;51.67;;;15.33;;
41927;SDS011;27616;51.420;6.788;2023-11-21T10:01:40;48.40;;;15.07;;
41927;SDS011;27616;51.420;6.788;2023-11-21T10:04:07;52.20;;;15.50;;
41927;SDS011;27616;51.420;6.788;2023-11-21T10:06:39;50.27;;;14.90;;
41927;SDS011;27616;51.420;6.788;2023-11-21T10:09:10;50.30;;;15.73;;
41927;SDS011;27616;51.420;6.788;2023-11-21T10:11:41;48.27;;;15.07;;
41927;SDS011;27616;51.420;6.788;2023-11-21T10:14:10;48.20;;;15.23;;
41927;SDS011;27616;51.420;6.788;2023-11-21T10:16:38;50.38;;;17.20;;
41927;SDS011;27616;51.420;6.788;2023-11-21T10:19:04;51.57;;;15.47;;
41927;SDS011;27616;51.420;6.788;2023-11-21T10:21:34;49.13;;;15.73;;
41927;SDS011;27616;51.420;6.788;2023-11-21T10:24:00;56.92;;;16.20;;
41927;SDS011;27616;51.420;6.788;2023-11-21T10:26:27;60.40;;;17.37;;
41927;SDS011;27616;51.420;6.788;2023-11-21T10:29:00;58.23;;;17.83;;
41927;SDS011;27616;51.420;6.788;2023-11-21T10:31:29;55.37;;;17.03;;
41927;SDS011;27616;51.420;6.788;2023-11-21T10:33:57;63.03;;;19.17;;
41927;SDS011;27616;51.420;6.788;2023-11-21T10:36:38;73.53;;;20.10;;
41927;SDS011;27616;51.420;6.788;2023-11-21T10:39:04;58.70;;;17.93;;
41927;SDS011;27616;51.420;6.788;2023-11-21T10:41:30;62.77;;;18.87;;
41927;SDS011;27616;51.420;6.788;2023-11-21T10:43:55;59.63;;;18.73;;
41927;SDS011;27616;51.420;6.788;2023-11-21T10:46:21;62.37;;;18.07;;
41927;SDS011;27616;51.420;6.788;2023-11-21T10:48:54;66.23;;;19.67;;
41927;SDS011;27616;51.420;6.788;2023-11-21T10:51:21;61.80;;;20.07;;
41927;SDS011;27616;51.420;6.788;2023-11-21T10:53:49;69.57;;;20.80;;
41927;SDS011;27616;51.420;6.788;2023-11-21T10:56:16;66.47;;;19.37;;
41927;SDS011;27616;51.420;6.788;2023-11-21T10:58:46;66.20;;;20.07;;
41927;SDS011;27616;51.420;6.788;2023-11-21T11:01:13;70.23;;;21.20;;
41927;SDS011;27616;51.420;6.788;2023-11-21T11:03:42;65.72;;;19.48;;
41927;SDS011;27616;51.420;6.788;2023-11-21T11:06:10;69.97;;;21.27;;
41927;SDS011;27616;51.420;6.788;2023-11-21T11:08:37;65.10;;;20.57;;
41927;SDS011;27616;51.420;6.788;2023-11-21T11:11:04;84.47;;;23.03;;
41927;SDS011;27616;51.420;6.788;2023-11-21T11:13:31;74.93;;;20.93;;
41927;SDS011;27616;51.420;6.788;2023-11-21T11:16:00;64.27;;;21.27;;
41927;SDS011;27616;51.420;6.788;2023-11-21T11:18:32;74.17;;;23.47;;
41927;SDS011;27616;51.420;6.788;2023-11-21T11:21:06;82.40;;;24.53;;
41927;SDS011;27616;51.420;6.788;2023-11-21T11:23:53;81.03;;;23.73;;
41927;SDS011;27616;51.420;6.788;2023-11-21T11:26:50;85.03;;;23.10;;
41927;SDS011;27616;51.420;6.788;2023-11-21T11:37:59;79.40;;;22.73;;
41927;SDS011;27616;51.420;6.788;2023-11-21T11:40:41;75.60;;;23.60;;
41927;SDS011;27616;51.420;6.788;2023-11-21T11:43:11;77.10;;;22.60;;
41927;SDS011;27616;51.420;6.788;2023-11-21T11:45:37;77.53;;;23.20;;
41927;SDS011;27616;51.420;6.788;2023-11-21T11:48:06;72.03;;;23.67;;
41927;SDS011;27616;51.420;6.788;2023-11-21T11:50:33;78.33;;;22.60;;
41927;SDS011;27616;51.420;6.788;2023-11-21T11:53:17;72.57;;;21.37;;
41927;SDS011;27616;51.420;6.788;2023-11-21T11:55:44;67.90;;;21.53;;
41927;SDS011;27616;51.420;6.788;2023-11-21T11:58:10;68.70;;;21.23;;
41927;SDS011;27616;51.420;6.788;2023-11-21T12:00:36;69.00;;;21.70;;
41927;SDS011;27616;51.420;6.788;2023-11-21T12:03:03;64.00;;;21.53;;
41927;SDS011;27616;51.420;6.788;2023-11-21T12:05:33;67.60;;;21.17;;
41927;SDS011;27616;51.420;6.788;2023-11-21T12:08:09;70.25;;;22.48;;
41927;SDS011;27616;51.420;6.788;2023-11-21T12:10:37;61.03;;;20.90;;
41927;SDS011;27616;51.420;6.788;2023-11-21T12:13:08;64.95;;;21.70;;
41927;SDS011;27616;51.420;6.788;2023-11-21T12:15:35;58.15;;;20.55;;
41927;SDS011;27616;51.420;6.788;2023-11-21T12:18:02;68.32;;;20.42;;
41927;SDS011;27616;51.420;6.788;2023-11-21T12:20:28;59.45;;;20.42;;
41927;SDS011;27616;51.420;6.788;2023-11-21T12:22:59;51.95;;;20.27;;
41927;SDS011;27616;51.420;6.788;2023-11-21T12:25:26;52.25;;;19.15;;
41927;SDS011;27616;51.420;6.788;2023-11-21T12:27:59;54.83;;;19.60;;
41927;SDS011;27616;51.420;6.788;2023-11-21T12:30:26;50.85;;;18.30;;
41927;SDS011;27616;51.420;6.788;2023-11-21T12:32:55;52.30;;;18.23;;
41927;SDS011;27616;51.420;6.788;2023-11-21T12:35:24;48.25;;;18.55;;
41927;SDS011;27616;51.420;6.788;2023-11-21T12:37:52;46.92;;;16.50;;
41927;SDS011;27616;51.420;6.788;2023-11-21T12:40:19;50.53;;;17.95;;
41927;SDS011;27616;51.420;6.788;2023-11-21T12:42:45;50.88;;;17.13;;
41927;SDS011;27616;51.420;6.788;2023-11-21T12:47:49;44.78;;;12.77;;
41927;SDS011;27616;51.420;6.788;2023-11-21T12:50:18;30.77;;;11.57;;
41927;SDS011;27616;51.420;6.788;2023-11-21T12:52:48;27.65;;;10.80;;
41927;SDS011;27616;51.420;6.788;2023-11-21T12:55:22;26.48;;;9.43;;
41927;SDS011;27616;51.420;6.788;2023-11-21T12:57:49;27.80;;;10.40;;
41927;SDS011;27616;51.420;6.788;2023-11-21T13:00:17;26.87;;;10.10;;
41927;SDS011;27616;51.420;6.788;2023-11-21T13:02:55;26.00;;;10.03;;
41927;SDS011;27616;51.420;6.788;2023-11-21T13:05:23;26.20;;;8.97;;
41927;SDS011;27616;51.420;6.788;2023-11-21T13:07:54;22.87;;;8.17;;
41927;SDS011;27616;51.420;6.788;2023-11-21T13:10:25;24.40;;;8.52;;
41927;SDS011;27616;51.420;6.788;2023-11-21T13:12:56;21.33;;;7.40;;
41927;SDS011;27616;51.420;6.788;2023-11-21T13:15:24;21.30;;;8.63;;
41927;SDS011;27616;51.420;6.788;2023-11-21T13:17:50;19.93;;;7.77;;
41927;SDS011;27616;51.420;6.788;2023-11-21T13:20:16;19.67;;;7.37;;
41927;SDS011;27616;51.420;6.788;2023-11-21T13:25:15;14.10;;;6.33;;
41927;SDS011;27616;51.420;6.788;2023-11-21T13:27:43;18.40;;;7.18;;
41927;SDS011;27616;51.420;6.788;2023-11-21T13:30:12;16.20;;;6.30;;
41927;SDS011;27616;51.420;6.788;2023-11-21T13:32:43;15.40;;;6.37;;
41927;SDS011;27616;51.420;6.788;2023-11-21T13:35:11;21.83;;;6.77;;
41927;SDS011;27616;51.420;6.788;2023-11-21T13:37:46;16.80;;;6.87;;
41927;SDS011;27616;51.420;6.788;2023-11-21T13:40:15;13.75;;;6.00;;
41927;SDS011;27616;51.420;6.788;2023-11-21T13:42:45;14.87;;;6.10;;
41927;SDS011;27616;51.420;6.788;2023-11-21T13:45:11;15.63;;;6.27;;
41927;SDS011;27616;51.420;6.788;2023-11-21T13:47:37;14.83;;;5.87;;
41927;SDS011;27616;51.420;6.788;2023-11-21T13:50:05;12.23;;;5.30;;
41927;SDS011;27616;51.420;6.788;2023-11-21T13:52:42;13.53;;;6.30;;
41927;SDS011;27616;51.420;6.788;2023-11-21T13:55:10;14.10;;;5.80;;
41927;SDS011;27616;51.420;6.788;2023-11-21T13:57:40;13.23;;;5.80;;
41927;SDS011;27616;51.420;6.788;2023-11-21T14:00:09;16.13;;;5.93;;
41927;SDS011;27616;51.420;6.788;2023-11-21T14:02:56;17.83;;;6.53;;
41927;SDS011;27616;51.420;6.788;2023-11-21T14:05:25;13.45;;;5.60;;
41927;SDS011;27616;51.420;6.788;2023-11-21T14:07:59;12.70;;;5.60;;
41927;SDS011;27616;51.420;6.788;2023-11-21T14:10:32;13.13;;;5.97;;
41927;SDS011;27616;51.420;6.788;2023-11-21T14:13:05;17.90;;;6.50;;
41927;SDS011;27616;51.420;6.788;2023-11-21T14:15:31;15.77;;;6.20;;
41927;SDS011;27616;51.420;6.788;2023-11-21T14:18:02;13.77;;;5.80;;
41927;SDS011;27616;51.420;6.788;2023-11-21T14:20:32;16.77;;;6.10;;
41927;SDS011;27616;51.420;6.788;2023-11-21T14:22:58;15.57;;;6.27;;
41927;SDS011;27616;51.420;6.788;2023-11-21T14:25:24;14.10;;;6.90;;
41927;SDS011;27616;51.420;6.788;2023-11-21T14:27:49;20.37;;;6.90;;
41927;SDS011;27616;51.420;6.788;2023-11-21T14:30:15;13.80;;;6.47;;
41927;SDS011;27616;51.420;6.788;2023-11-21T14:32:44;18.67;;;6.90;;
41927;SDS011;27616;51.420;6.788;2023-11-21T14:35:10;18.27;;;6.47;;
41927;SDS011;27616;51.420;6.788;2023-11-21T14:37:35;17.87;;;7.27;;
41927;SDS011;27616;51.420;6.788;2023-11-21T14:40:01;17.67;;;6.33;;
41927;SDS011;27616;51.420;6.788;2023-11-21T14:42:29;17.03;;;6.83;;
41927;SDS011;27616;51.420;6.788;2023-11-21T14:44:55;18.20;;;6.97;;